createdAt,value
2023-02-22T00:01:42.985Z,2.20
2023-02-22T00:04:11.047Z,4.00
2023-02-22T00:06:37.829Z,3.03
2023-02-22T00:09:05.007Z,2.72
2023-02-22T00:11:31.815Z,2.90
2023-02-22T00:13:59.036Z,3.70
2023-02-22T00:16:26.773Z,2.95
2023-02-22T00:18:54.566Z,3.00
2023-02-22T00:21:21.841Z,2.60
2023-02-22T00:23:49.652Z,2.80
2023-02-22T00:26:21.506Z,2.75
2023-02-22T00:28:50.929Z,2.92
2023-02-22T00:31:19.536Z,3.33
2023-02-22T00:33:46.767Z,3.42
2023-02-22T00:36:14.310Z,2.92
2023-02-22T00:38:42.043Z,3.03
2023-02-22T00:41:09.986Z,2.95
2023-02-22T00:43:37.045Z,3.20
2023-02-22T00:46:04.068Z,2.60
2023-02-22T00:48:31.155Z,3.40
2023-02-22T00:50:57.993Z,2.78
2023-02-22T00:53:26.300Z,2.78
2023-02-22T00:55:54.145Z,2.83
2023-02-22T00:58:21.619Z,2.78
2023-02-22T01:00:49.850Z,2.70
2023-02-22T01:03:20.024Z,2.75
2023-02-22T01:05:47.536Z,2.95
2023-02-22T01:08:16.327Z,2.88
2023-02-22T01:10:43.858Z,3.20
2023-02-22T01:13:12.825Z,3.10
2023-02-22T01:15:42.785Z,3.17
2023-02-22T01:18:12.593Z,3.40
2023-02-22T01:20:39.559Z,3.35
2023-02-22T01:23:08.067Z,3.65
2023-02-22T01:25:35.815Z,3.25
2023-02-22T01:28:04.938Z,3.45
2023-02-22T01:30:34.558Z,3.38
2023-02-22T01:33:04.013Z,2.85
2023-02-22T01:35:34.361Z,4.60
2023-02-22T01:38:01.669Z,3.50
2023-02-22T01:40:34.217Z,3.40
2023-02-22T01:43:14.642Z,4.23
2023-02-22T01:45:50.051Z,3.53
2023-02-22T01:48:24.897Z,3.35
2023-02-22T01:50:57.237Z,3.05
2023-02-22T01:53:30.440Z,3.33
2023-02-22T01:55:58.510Z,3.50
2023-02-22T01:58:28.633Z,3.30
2023-02-22T02:00:55.839Z,3.50
2023-02-22T02:03:27.739Z,3.28
2023-02-22T02:05:59.006Z,4.05
2023-02-22T02:08:36.836Z,3.15
2023-02-22T02:11:08.689Z,3.10
2023-02-22T02:13:36.766Z,3.85
2023-02-22T02:16:03.998Z,2.90
2023-02-22T02:18:32.598Z,3.10
2023-02-22T02:21:14.745Z,2.65
2023-02-22T02:23:55.083Z,3.65
2023-02-22T02:26:40.601Z,3.13
2023-02-22T02:29:40.876Z,3.63
2023-02-22T02:32:30.041Z,3.60
2023-02-22T02:35:23.162Z,2.97
2023-02-22T02:38:12.149Z,3.40
2023-02-22T02:40:47.648Z,3.03
2023-02-22T02:43:51.928Z,2.90
2023-02-22T02:46:32.387Z,4.30
2023-02-22T02:49:04.559Z,3.03
2023-02-22T02:51:36.666Z,3.78
2023-02-22T02:54:05.839Z,2.92
2023-02-22T02:56:33.444Z,3.35
2023-02-22T02:59:00.253Z,3.22
2023-02-22T03:01:56.355Z,3.70
2023-02-22T03:04:34.397Z,3.25
2023-02-22T03:07:20.268Z,3.58
2023-02-22T03:09:54.787Z,3.13
2023-02-22T03:12:53.655Z,3.58
2023-02-22T03:15:40.065Z,3.83
2023-02-22T03:18:22.906Z,3.20
2023-02-22T03:21:00.317Z,3.55
2023-02-22T03:23:37.527Z,3.55
2023-02-22T03:26:19.441Z,3.22
2023-02-22T03:28:49.088Z,3.22
2023-02-22T03:31:29.745Z,3.53
2023-02-22T03:34:02.732Z,3.72
2023-02-22T03:36:33.915Z,3.60
2023-02-22T03:39:04.342Z,3.45
2023-02-22T03:41:33.336Z,3.42
2023-02-22T03:44:03.145Z,3.25
2023-02-22T03:46:31.591Z,3.55
2023-02-22T03:49:35.000Z,3.80
2023-02-22T03:52:03.896Z,4.22
2023-02-22T03:54:32.177Z,4.50
2023-02-22T03:57:15.123Z,4.00
2023-02-22T03:59:43.006Z,3.72
2023-02-22T04:02:09.773Z,3.95
2023-02-22T04:04:36.890Z,3.60
2023-02-22T04:07:03.747Z,4.00
2023-02-22T04:09:30.854Z,4.20
2023-02-22T04:11:57.646Z,3.72
2023-02-22T04:14:24.709Z,4.18
2023-02-22T04:16:51.543Z,3.63
2023-02-22T04:19:18.642Z,3.80
2023-02-22T04:21:45.432Z,4.05
2023-02-22T04:24:12.556Z,4.00
2023-02-22T04:26:39.325Z,3.90
2023-02-22T04:29:06.545Z,4.30
2023-02-22T04:31:36.224Z,3.97
2023-02-22T04:34:03.601Z,4.55
2023-02-22T04:36:31.889Z,3.53
2023-02-22T04:38:59.777Z,4.43
2023-02-22T04:41:26.744Z,3.67
2023-02-22T04:43:54.018Z,4.35
2023-02-22T04:46:20.933Z,3.35
2023-02-22T04:48:48.078Z,4.03
2023-02-22T04:51:15.710Z,3.42
2023-02-22T04:53:42.983Z,5.53
2023-02-22T04:56:09.799Z,3.72
2023-02-22T04:58:36.883Z,4.90
2023-02-22T05:01:04.012Z,5.45
2023-02-22T05:03:31.807Z,4.90
2023-02-22T05:05:58.810Z,5.18
2023-02-22T05:08:25.859Z,5.30
2023-02-22T05:10:52.645Z,4.85
2023-02-22T05:13:19.888Z,4.72
2023-02-22T05:15:47.840Z,4.60
2023-02-22T05:18:16.353Z,4.00
2023-02-22T05:20:43.166Z,4.32
2023-02-22T05:23:10.384Z,5.72
2023-02-22T05:25:37.200Z,8.80
2023-02-22T05:28:12.681Z,8.00
2023-02-22T05:30:40.177Z,8.30
2023-02-22T05:33:08.323Z,6.10
2023-02-22T05:35:35.137Z,6.07
2023-02-22T05:38:03.732Z,6.15
2023-02-22T05:40:31.639Z,5.80
2023-02-22T05:42:59.452Z,4.72
2023-02-22T05:45:27.604Z,6.18
2023-02-22T05:47:55.404Z,5.72
2023-02-22T05:50:22.446Z,5.70
2023-02-22T05:52:49.555Z,6.22
2023-02-22T05:55:18.836Z,5.80
2023-02-22T05:57:48.333Z,5.72
2023-02-22T06:00:19.956Z,5.65
2023-02-22T06:02:47.021Z,6.47
2023-02-22T06:05:14.028Z,5.95
2023-02-22T06:07:41.085Z,6.35
2023-02-22T06:10:08.472Z,6.80
2023-02-22T06:12:35.542Z,7.07
2023-02-22T06:15:02.693Z,6.47
2023-02-22T06:17:30.483Z,5.93
2023-02-22T06:19:57.575Z,5.63
2023-02-22T06:22:24.594Z,5.93
2023-02-22T06:24:52.214Z,6.28
2023-02-22T06:27:20.488Z,5.25
2023-02-22T06:29:48.056Z,5.90
2023-02-22T06:32:15.119Z,5.70
2023-02-22T06:34:42.004Z,5.32
2023-02-22T06:37:09.080Z,5.05
2023-02-22T06:39:35.814Z,5.10
2023-02-22T06:42:02.958Z,5.10
2023-02-22T06:44:29.819Z,5.13
2023-02-22T06:46:56.956Z,5.65
2023-02-22T06:49:23.841Z,6.40
2023-02-22T06:51:50.999Z,5.88
2023-02-22T06:54:17.820Z,5.40
2023-02-22T06:56:45.305Z,4.97
2023-02-22T06:59:12.102Z,5.57
2023-02-22T07:01:42.926Z,5.45
2023-02-22T07:04:10.304Z,5.68
2023-02-22T07:06:37.576Z,5.07
2023-02-22T07:09:04.394Z,5.03
2023-02-22T07:11:31.663Z,6.20
2023-02-22T07:13:58.446Z,6.13
2023-02-22T07:16:25.551Z,6.53
2023-02-22T07:18:52.380Z,6.45
2023-02-22T07:21:19.594Z,5.75
2023-02-22T07:23:57.045Z,6.22
2023-02-22T07:26:24.685Z,5.38
2023-02-22T07:28:51.646Z,6.45
2023-02-22T07:31:18.954Z,6.25
2023-02-22T07:33:49.445Z,5.70
2023-02-22T07:36:18.104Z,5.85
2023-02-22T07:38:45.675Z,6.18
2023-02-22T07:41:13.185Z,6.18
2023-02-22T07:43:39.995Z,5.45
2023-02-22T07:46:07.113Z,5.50
2023-02-22T07:48:33.949Z,5.43
2023-02-22T07:51:01.032Z,5.75
2023-02-22T07:53:30.604Z,5.28
2023-02-22T07:55:58.613Z,5.78
2023-02-22T07:58:27.385Z,6.40
2023-02-22T08:00:54.868Z,5.88
2023-02-22T08:03:24.169Z,5.47
2023-02-22T08:05:56.939Z,5.50
2023-02-22T08:08:24.324Z,5.07
2023-02-22T08:10:52.162Z,4.55
2023-02-22T08:13:20.886Z,5.65
2023-02-22T08:15:50.456Z,5.82
2023-02-22T08:18:19.697Z,4.82
2023-02-22T08:20:49.455Z,4.70
2023-02-22T08:23:17.250Z,4.60
2023-02-22T08:25:44.589Z,4.93
2023-02-22T08:28:15.138Z,4.90
2023-02-22T08:30:43.764Z,5.35
2023-02-22T08:33:16.811Z,4.47
2023-02-22T08:35:44.042Z,4.60
2023-02-22T08:38:19.857Z,5.07
2023-02-22T08:40:50.983Z,4.80
2023-02-22T08:43:19.601Z,4.97
2023-02-22T08:45:47.587Z,4.90
2023-02-22T08:48:16.007Z,4.85
2023-02-22T08:50:44.471Z,5.65
2023-02-22T08:53:13.632Z,5.57
2023-02-22T08:55:42.000Z,5.38
2023-02-22T08:58:10.044Z,5.57
2023-02-22T09:00:39.184Z,5.93
2023-02-22T09:03:09.487Z,5.15
2023-02-22T09:05:36.760Z,5.07
2023-02-22T09:08:04.526Z,5.78
2023-02-22T09:10:33.731Z,5.70
2023-02-22T09:13:01.456Z,6.00
2023-02-22T09:15:29.891Z,5.60
2023-02-22T09:17:57.138Z,5.80
2023-02-22T09:20:25.419Z,5.18
2023-02-22T09:22:53.473Z,5.72
2023-02-22T09:25:21.769Z,7.28
2023-02-22T09:27:51.336Z,7.03
2023-02-22T09:30:34.187Z,7.88
2023-02-22T09:33:04.059Z,7.80
2023-02-22T09:35:31.426Z,7.70
2023-02-22T09:38:00.282Z,6.75
2023-02-22T09:40:30.546Z,7.10
2023-02-22T09:43:16.394Z,7.07
2023-02-22T09:46:13.623Z,7.40
2023-02-22T09:48:52.694Z,6.90
2023-02-22T09:51:21.782Z,7.38
2023-02-22T09:53:52.329Z,7.90
2023-02-22T09:56:20.950Z,7.57
2023-02-22T09:58:52.697Z,7.40
2023-02-22T10:01:35.007Z,7.20
2023-02-22T10:04:36.634Z,8.10
2023-02-22T10:07:30.816Z,7.20
2023-02-22T10:09:58.705Z,7.72
2023-02-22T10:12:33.773Z,8.32
2023-02-22T10:15:18.737Z,7.32
2023-02-22T10:18:16.609Z,6.68
2023-02-22T10:20:57.785Z,6.68
2023-02-22T10:23:42.843Z,6.68
2023-02-22T10:26:17.735Z,7.13
2023-02-22T10:28:47.738Z,6.57
2023-02-22T10:31:42.358Z,6.60
2023-02-22T10:34:33.349Z,6.70
2023-02-22T10:37:23.955Z,7.57
2023-02-22T10:39:56.885Z,6.22
2023-02-22T10:42:27.228Z,6.38
2023-02-22T10:44:54.441Z,5.57
2023-02-22T10:47:22.168Z,6.95
2023-02-22T10:49:53.637Z,6.50
2023-02-22T10:52:40.813Z,7.20
2023-02-22T10:55:15.545Z,7.78
2023-02-22T10:57:46.580Z,7.72
2023-02-22T11:00:20.910Z,6.97
2023-02-22T11:02:57.233Z,6.97
2023-02-22T11:05:32.409Z,6.50
2023-02-22T11:08:20.674Z,7.05
2023-02-22T11:10:54.409Z,7.10
2023-02-22T11:13:26.521Z,7.28
2023-02-22T11:16:00.779Z,7.07
2023-02-22T11:18:31.942Z,7.07
2023-02-22T11:21:12.458Z,6.85
2023-02-22T11:23:44.295Z,6.55
2023-02-22T11:26:16.833Z,6.00
2023-02-22T11:28:51.016Z,6.60
2023-02-22T11:31:22.460Z,6.40
2023-02-22T11:34:02.113Z,6.47
2023-02-22T11:36:30.945Z,6.55
2023-02-22T11:39:00.750Z,6.65
2023-02-22T11:41:30.642Z,6.70
2023-02-22T11:44:21.687Z,7.88
2023-02-22T11:46:49.547Z,6.18
2023-02-22T11:49:17.689Z,6.47
2023-02-22T11:51:53.752Z,7.85
2023-02-22T11:54:33.528Z,6.95
2023-02-22T11:57:42.405Z,7.20
2023-02-22T12:00:24.639Z,7.00
2023-02-22T12:03:28.693Z,6.60
2023-02-22T12:06:10.587Z,7.45
2023-02-22T12:08:46.607Z,7.47
2023-02-22T12:11:41.080Z,8.10
2023-02-22T12:14:14.156Z,8.32
2023-02-22T12:17:30.919Z,6.70
2023-02-22T12:20:10.295Z,6.97
2023-02-22T12:22:43.471Z,6.40
2023-02-22T12:25:21.572Z,8.15
2023-02-22T12:27:57.174Z,7.68
2023-02-22T12:30:28.917Z,9.40
2023-02-22T12:33:00.236Z,9.15
2023-02-22T12:35:34.828Z,7.57
2023-02-22T12:38:13.584Z,7.47
2023-02-22T12:40:58.897Z,8.45
2023-02-22T12:44:01.699Z,8.50
2023-02-22T12:46:44.158Z,7.68
2023-02-22T12:49:41.548Z,5.03
2023-02-22T12:52:42.151Z,7.13
2023-02-22T12:55:21.314Z,8.15
2023-02-22T12:57:59.541Z,9.85
2023-02-22T13:00:34.624Z,7.25
2023-02-22T13:03:13.381Z,8.75
2023-02-22T13:05:52.279Z,9.55
2023-02-22T13:08:25.443Z,9.85
2023-02-22T13:10:58.263Z,9.00
2023-02-22T13:13:33.713Z,8.52
2023-02-22T13:16:27.448Z,6.18
2023-02-22T13:18:58.404Z,8.02
2023-02-22T13:21:49.597Z,4.97
2023-02-22T13:27:23.129Z,8.65
2023-02-22T13:29:57.456Z,8.65
2023-02-22T13:33:07.854Z,10.00
2023-02-22T13:35:48.769Z,8.65
2023-02-22T13:38:26.188Z,9.27
2023-02-22T13:41:15.572Z,8.77
2023-02-22T13:43:52.223Z,9.07
2023-02-22T13:46:44.156Z,8.73
2023-02-22T13:49:29.501Z,8.68
2023-02-22T13:52:13.181Z,7.50
2023-02-22T13:54:47.039Z,8.38
2023-02-22T13:57:38.023Z,8.95
2023-02-22T14:00:18.097Z,8.60
2023-02-22T14:03:08.989Z,7.75
2023-02-22T14:05:49.742Z,8.20
2023-02-22T14:08:19.961Z,9.18
2023-02-22T14:10:51.170Z,8.98
2023-02-22T14:13:23.513Z,8.65
2023-02-22T14:16:02.527Z,8.75
2023-02-22T14:18:35.153Z,8.85
2023-02-22T14:21:07.805Z,8.85
2023-02-22T14:23:42.181Z,8.70
2023-02-22T14:26:14.052Z,8.95
2023-02-22T14:28:52.515Z,9.43
2023-02-22T14:31:36.077Z,9.27
2023-02-22T14:34:06.405Z,9.38
2023-02-22T14:36:51.908Z,8.63
2023-02-22T14:39:51.503Z,9.15
2023-02-22T14:42:21.382Z,9.25
2023-02-22T14:44:48.909Z,8.77
2023-02-22T14:47:29.588Z,10.52
2023-02-22T14:50:13.080Z,7.00
2023-02-22T14:52:43.336Z,8.85
2023-02-22T14:55:20.056Z,9.20
2023-02-22T14:57:59.303Z,7.95
2023-02-22T15:00:38.279Z,8.02
2023-02-22T15:03:05.113Z,8.85
2023-02-22T15:05:38.553Z,9.20
2023-02-22T15:08:08.358Z,8.27
2023-02-22T15:10:45.829Z,9.35
2023-02-22T15:13:27.159Z,8.30
2023-02-22T15:16:01.803Z,9.02
2023-02-22T15:18:41.735Z,10.18
2023-02-22T15:21:17.927Z,8.75
2023-02-22T15:23:54.875Z,8.68
2023-02-22T15:26:37.279Z,9.27
2023-02-22T15:29:15.295Z,8.50
2023-02-22T15:31:48.329Z,9.85
2023-02-22T15:34:15.467Z,9.43
2023-02-22T15:36:44.888Z,10.07
2023-02-22T15:39:43.803Z,8.23
2023-02-22T15:42:20.885Z,8.80
2023-02-22T15:44:49.910Z,9.10
2023-02-22T15:47:22.681Z,7.97
2023-02-22T15:50:17.593Z,8.70
2023-02-22T15:53:21.665Z,8.70
2023-02-22T15:55:55.057Z,8.48
2023-02-22T16:01:01.184Z,7.82
2023-02-22T16:03:45.001Z,8.35
2023-02-22T16:06:35.597Z,8.52
2023-02-22T16:09:14.772Z,8.13
2023-02-22T16:11:46.657Z,9.07
2023-02-22T16:14:42.925Z,9.15
2023-02-22T16:17:24.803Z,8.95
2023-02-22T16:19:53.025Z,9.65
2023-02-22T16:22:35.446Z,9.95
2023-02-22T16:25:21.618Z,9.90
2023-02-22T16:27:59.827Z,10.00
2023-02-22T16:30:32.423Z,9.32
2023-02-22T16:33:00.896Z,10.45
2023-02-22T16:35:29.400Z,9.35
2023-02-22T16:38:00.481Z,10.50
2023-02-22T16:40:34.643Z,9.90
2023-02-22T16:43:04.810Z,9.43
2023-02-22T16:45:32.397Z,11.77
2023-02-22T16:48:00.292Z,10.10
2023-02-22T16:50:27.450Z,11.20
2023-02-22T16:52:58.580Z,11.15
2023-02-22T16:55:26.831Z,10.50
2023-02-22T16:57:56.978Z,10.10
2023-02-22T17:00:34.061Z,8.43
2023-02-22T17:03:05.611Z,8.00
2023-02-22T17:05:37.688Z,8.40
2023-02-22T17:08:04.920Z,7.18
2023-02-22T17:10:32.849Z,7.28
2023-02-22T17:13:12.735Z,7.57
2023-02-22T17:15:48.204Z,7.38
2023-02-22T17:18:17.079Z,8.57
2023-02-22T17:20:45.026Z,7.03
2023-02-22T17:23:12.534Z,7.38
2023-02-22T17:25:44.392Z,7.43
2023-02-22T17:28:12.788Z,10.68
2023-02-22T17:30:41.402Z,10.98
2023-02-22T17:33:10.008Z,9.40
2023-02-22T17:35:39.359Z,11.90
2023-02-22T17:38:06.765Z,11.80
2023-02-22T17:40:36.416Z,13.65
2023-02-22T17:43:04.039Z,12.95
2023-02-22T17:45:31.353Z,12.43
2023-02-22T17:48:01.004Z,10.93
2023-02-22T17:50:28.173Z,9.68
2023-02-22T17:52:54.967Z,9.32
2023-02-22T17:55:22.246Z,8.07
2023-02-22T17:57:58.219Z,9.02
2023-02-22T18:00:34.374Z,10.07
2023-02-22T18:03:04.181Z,9.45
2023-02-22T18:05:35.156Z,8.55
2023-02-22T18:08:01.952Z,7.57
2023-02-22T18:10:28.995Z,8.07
2023-02-22T18:12:56.807Z,7.40
2023-02-22T18:15:28.243Z,6.57
2023-02-22T18:17:56.064Z,6.78
2023-02-22T18:20:38.239Z,6.32
2023-02-22T18:23:10.083Z,6.78
2023-02-22T18:25:38.184Z,6.15
2023-02-22T18:28:06.384Z,6.45
2023-02-22T18:30:35.930Z,6.63
2023-02-22T18:33:04.021Z,5.72
2023-02-22T18:35:31.617Z,5.88
2023-02-22T18:37:58.465Z,5.95
2023-02-22T18:40:25.509Z,6.32
2023-02-22T18:42:52.270Z,6.78
2023-02-22T18:45:20.345Z,6.80
2023-02-22T18:47:47.150Z,6.95
2023-02-22T18:50:17.242Z,6.28
2023-02-22T18:52:45.918Z,7.38
2023-02-22T18:55:18.697Z,7.45
2023-02-22T18:57:47.012Z,7.65
2023-02-22T19:00:23.199Z,7.05
2023-02-22T19:02:50.599Z,7.63
2023-02-22T19:05:17.491Z,7.80
2023-02-22T19:07:45.200Z,8.07
2023-02-22T19:10:12.189Z,7.78
2023-02-22T19:12:39.242Z,6.55
2023-02-22T19:15:06.144Z,7.78
2023-02-22T19:17:36.431Z,7.43
2023-02-22T19:20:09.982Z,7.40
2023-02-22T19:25:08.839Z,6.88
2023-02-22T19:27:36.038Z,7.22
2023-02-22T19:30:04.650Z,7.25
2023-02-22T19:32:33.578Z,7.43
2023-02-22T19:35:06.799Z,7.10
2023-02-22T19:37:35.641Z,7.68
2023-02-22T19:40:06.878Z,8.23
2023-02-22T19:42:33.970Z,7.05
2023-02-22T19:45:01.016Z,7.30
2023-02-22T19:47:28.176Z,7.90
2023-02-22T19:49:57.198Z,7.85
2023-02-22T19:52:28.265Z,8.60
2023-02-22T19:54:55.058Z,7.35
2023-02-22T19:57:24.248Z,6.50
2023-02-22T19:59:51.300Z,7.55
2023-02-22T20:02:18.422Z,7.30
2023-02-22T20:04:45.525Z,8.13
2023-02-22T20:07:12.564Z,7.22
2023-02-22T20:09:40.321Z,7.97
2023-02-22T20:12:08.133Z,7.15
2023-02-22T20:14:35.427Z,7.63
2023-02-22T20:17:04.417Z,8.48
2023-02-22T20:19:31.226Z,6.97
2023-02-22T20:22:00.254Z,6.97
2023-02-22T20:24:27.776Z,8.25
2023-02-22T20:26:57.176Z,6.90
2023-02-22T20:29:29.680Z,7.20
2023-02-22T20:31:58.128Z,7.68
2023-02-22T20:34:26.506Z,7.88
2023-02-22T20:36:53.992Z,7.82
2023-02-22T20:39:20.782Z,8.45
2023-02-22T20:41:48.042Z,8.00
2023-02-22T20:44:17.505Z,8.00
2023-02-22T20:46:45.871Z,7.45
2023-02-22T20:49:18.940Z,7.32
2023-02-22T20:51:48.037Z,7.85
2023-02-22T20:54:16.267Z,8.48
2023-02-22T20:56:45.145Z,8.98
2023-02-22T20:59:14.904Z,9.40
2023-02-22T21:01:42.317Z,8.82
2023-02-22T21:04:11.124Z,7.75
2023-02-22T21:06:39.706Z,7.32
2023-02-22T21:09:08.859Z,6.93
2023-02-22T21:11:36.001Z,9.60
2023-02-22T21:14:03.444Z,9.18
2023-02-22T21:16:35.292Z,7.63
2023-02-22T21:19:04.956Z,6.82
2023-02-22T21:21:32.091Z,6.63
2023-02-22T21:24:02.731Z,7.50
2023-02-22T21:26:33.501Z,7.22
2023-02-22T21:29:04.681Z,8.40
2023-02-22T21:31:34.022Z,7.95
2023-02-22T21:34:01.354Z,8.00
2023-02-22T21:36:28.879Z,9.57
2023-02-22T21:38:57.981Z,9.45
2023-02-22T21:41:28.933Z,8.40
2023-02-22T21:43:58.245Z,8.18
2023-02-22T21:46:29.528Z,8.63
2023-02-22T21:48:58.713Z,7.53
2023-02-22T21:51:31.442Z,8.13
2023-02-22T21:54:03.959Z,7.13
2023-02-22T21:56:35.354Z,6.47
2023-02-22T21:59:06.208Z,6.63
2023-02-22T22:01:36.645Z,6.53
2023-02-22T22:04:04.930Z,7.20
2023-02-22T22:06:34.541Z,7.82
2023-02-22T22:09:04.118Z,8.13
2023-02-22T22:11:31.204Z,8.20
2023-02-22T22:13:59.660Z,8.57
2023-02-22T22:16:29.784Z,8.63
2023-02-22T22:18:57.174Z,7.55
2023-02-22T22:21:24.657Z,8.13
2023-02-22T22:23:55.996Z,7.40
2023-02-22T22:26:25.180Z,7.85
2023-02-22T22:28:56.019Z,7.43
2023-02-22T22:31:26.105Z,6.88
2023-02-22T22:33:54.374Z,7.88
2023-02-22T22:36:22.832Z,8.38
2023-02-22T22:38:52.575Z,9.25
2023-02-22T22:41:21.928Z,10.00
2023-02-22T22:43:48.826Z,9.95
2023-02-22T22:46:17.715Z,11.05
2023-02-22T22:48:47.307Z,12.95
2023-02-22T22:51:18.436Z,12.82
2023-02-22T22:53:47.488Z,9.85
2023-02-22T22:56:29.203Z,9.23
2023-02-22T22:58:58.044Z,10.38
2023-02-22T23:01:34.235Z,9.68
2023-02-22T23:04:04.477Z,10.82
2023-02-22T23:06:34.507Z,8.85
2023-02-22T23:09:11.166Z,9.52
2023-02-22T23:11:44.740Z,9.10
2023-02-22T23:14:22.070Z,9.63
2023-02-22T23:16:51.024Z,9.95
2023-02-22T23:19:19.412Z,10.77
2023-02-22T23:21:48.736Z,9.85
2023-02-22T23:24:19.901Z,9.80
2023-02-22T23:26:50.640Z,9.35
2023-02-22T23:29:20.298Z,8.85
2023-02-22T23:31:48.767Z,9.77
2023-02-22T23:34:24.089Z,8.98
2023-02-22T23:36:54.336Z,10.20
2023-02-22T23:39:22.512Z,10.10
2023-02-22T23:41:51.111Z,9.65
2023-02-22T23:44:17.984Z,10.25
2023-02-22T23:46:48.230Z,8.98
2023-02-22T23:49:20.168Z,8.95
2023-02-22T23:51:47.646Z,8.55
2023-02-22T23:54:19.271Z,8.52
2023-02-22T23:56:56.182Z,7.85
2023-02-22T23:59:25.320Z,8.20
